Contoocook River @ Henniker, Nh

Contoocook River at Henniker
 Total Drainage Area: 368 sq. miles 
 Drainage Area Controlled by Corps Dams: 44 sq. miles (12%) 
 Warning Flow/Stage: 2,230 cfs / 9.0 feet 
 Flood Flow/Stage: 6,170 cfs / 11.5 feet 
Date Time
(Eastern)
Stage
(ft)
Flow
(cfs)
CSM
(cfs / sq. mi.)
Jan-31 01:30 pm 7.82 1,236 3.4
Jan-31 12:30 pm 7.83 1,243 3.4
Jan-31 11:30 am 7.82 1,236 3.4
Jan-31 10:30 am 7.82 1,236 3.4
Jan-31 09:30 am 7.85 1,256 3.4
Jan-31 08:30 am 7.80 1,222 3.3
Jan-31 07:30 am 7.88 1,277 3.5
Jan-31 06:30 am 7.88 1,277 3.5
Jan-31 05:30 am 7.90 1,292 3.5
Jan-31 04:30 am 7.90 1,292 3.5
Jan-31 03:30 am 7.90 1,292 3.5
Jan-31 02:30 am 7.92 1,306 3.6
Jan-31 01:30 am 7.90 1,292 3.5
Jan-31 12:30 am 7.94 1,320 3.6
Jan-30 11:30 pm 7.94 1,320 3.6
Jan-30 10:30 pm 7.97 1,342 3.7
Jan-30 09:30 pm 7.96 1,335 3.6
Jan-30 08:30 pm 7.95 1,327 3.6
Jan-30 07:30 pm 7.95 1,327 3.6
Jan-30 06:30 pm 7.97 1,342 3.7
Jan-30 05:30 pm 7.99 1,356 3.7
Jan-30 04:30 pm 7.96 1,335 3.6
Jan-30 03:30 pm 8.01 1,371 3.7
Jan-30 02:30 pm 8.01 1,371 3.7
Jan-30 01:30 pm 8.03 1,386 3.8
Report Generated January 31, 2023 02:32 pm